createdAt,value
2023-02-25T00:01:51.232Z,95429.88
2023-02-25T00:04:29.855Z,95426.56
2023-02-25T00:06:57.911Z,95428.50
2023-02-25T00:09:25.867Z,95427.78
2023-02-25T00:11:54.085Z,95428.44
2023-02-25T00:14:22.132Z,95434.97
2023-02-25T00:16:50.882Z,95439.00
2023-02-25T00:19:18.888Z,95436.38
2023-02-25T00:21:48.237Z,95439.69
2023-02-25T00:24:17.157Z,95441.31
2023-02-25T00:26:45.482Z,95431.25
2023-02-25T00:29:15.625Z,95436.53
2023-02-25T00:31:43.961Z,95441.31
2023-02-25T00:34:12.115Z,95438.16
2023-02-25T00:36:40.675Z,95441.19
2023-02-25T00:39:11.994Z,95449.19
2023-02-25T00:41:40.189Z,95452.25
2023-02-25T00:44:08.644Z,95442.91
2023-02-25T00:46:36.785Z,95434.50
2023-02-25T00:49:06.780Z,95431.06
2023-02-25T00:51:34.883Z,95428.44
2023-02-25T00:54:03.631Z,95431.28
2023-02-25T00:56:32.983Z,95437.47
2023-02-25T00:59:01.389Z,95450.66
2023-02-25T01:01:33.780Z,95443.22
2023-02-25T01:04:02.551Z,95443.66
2023-02-25T01:06:32.947Z,95449.50
2023-02-25T01:09:01.938Z,95453.28
2023-02-25T01:11:34.343Z,95442.78
2023-02-25T01:14:05.780Z,95445.19
2023-02-25T01:16:36.118Z,95448.16
2023-02-25T01:19:09.606Z,95459.66
2023-02-25T01:21:41.016Z,95451.59
2023-02-25T01:24:13.587Z,95455.75
2023-02-25T01:26:45.524Z,95469.22
2023-02-25T01:29:17.212Z,95483.69
2023-02-25T01:31:46.308Z,95481.97
2023-02-25T01:34:17.038Z,95481.00
2023-02-25T01:36:46.791Z,95482.09
2023-02-25T01:39:17.350Z,95485.75
2023-02-25T01:41:48.716Z,95490.63
2023-02-25T01:44:19.798Z,95481.38
2023-02-25T01:46:50.482Z,95464.28
2023-02-25T01:49:22.993Z,95456.44
2023-02-25T01:51:56.468Z,95463.63
2023-02-25T01:54:24.646Z,95452.78
2023-02-25T01:56:56.777Z,95459.97
2023-02-25T01:59:29.913Z,95442.66
2023-02-25T02:01:58.780Z,95461.50
2023-02-25T02:04:27.821Z,95473.31
2023-02-25T02:06:56.798Z,95477.31
2023-02-25T02:09:28.568Z,95477.22
2023-02-25T02:12:00.147Z,95478.47
2023-02-25T02:14:31.418Z,95476.06
2023-02-25T02:17:27.258Z,95470.41
2023-02-25T02:20:13.971Z,95469.66
2023-02-25T02:22:55.140Z,95471.00
2023-02-25T02:26:12.223Z,95477.44
2023-02-25T02:29:18.280Z,95486.19
2023-02-25T02:31:59.586Z,95487.56
2023-02-25T02:34:40.747Z,95484.13
2023-02-25T02:37:26.473Z,95485.75
2023-02-25T02:40:06.625Z,95492.44
2023-02-25T02:42:45.811Z,95479.19
2023-02-25T02:45:23.487Z,95481.38
2023-02-25T02:47:58.975Z,95487.25
2023-02-25T02:50:34.761Z,95489.28
2023-02-25T02:53:09.369Z,95492.19
2023-02-25T02:55:42.144Z,95493.00
2023-02-25T02:58:17.862Z,95494.75
2023-02-25T03:00:50.934Z,95492.72
2023-02-25T03:03:36.356Z,95491.69
2023-02-25T03:06:09.527Z,95494.53
2023-02-25T03:08:45.862Z,95491.91
2023-02-25T03:11:15.264Z,95497.78
2023-02-25T03:13:46.588Z,95499.41
2023-02-25T03:16:22.543Z,95501.56
2023-02-25T03:18:59.614Z,95507.84
2023-02-25T03:21:36.295Z,95509.06
2023-02-25T03:24:09.369Z,95508.47
2023-02-25T03:26:38.584Z,95507.09
2023-02-25T03:29:06.667Z,95521.34
2023-02-25T03:31:42.382Z,95517.19
2023-02-25T03:34:19.037Z,95510.94
2023-02-25T03:36:54.830Z,95529.47
2023-02-25T03:39:28.018Z,95520.50
2023-02-25T03:42:00.239Z,95524.56
2023-02-25T03:44:35.993Z,95528.31
2023-02-25T03:47:07.994Z,95527.72
2023-02-25T03:49:45.083Z,95521.63
2023-02-25T03:52:17.861Z,95525.53
2023-02-25T03:54:52.383Z,95525.13
2023-02-25T03:57:24.979Z,95529.75
2023-02-25T03:59:56.267Z,95529.19
2023-02-25T04:02:30.473Z,95519.34
2023-02-25T04:05:00.140Z,95535.16
2023-02-25T04:07:29.032Z,95532.97
2023-02-25T04:09:57.455Z,95534.41
2023-02-25T04:12:28.453Z,95546.84
2023-02-25T04:14:56.768Z,95556.94
2023-02-25T04:17:25.184Z,95552.34
2023-02-25T04:19:53.489Z,95554.19
2023-02-25T04:22:23.823Z,95560.50
2023-02-25T04:24:52.071Z,95550.91
2023-02-25T04:27:20.426Z,95553.34
2023-02-25T04:29:48.595Z,95549.53
2023-02-25T04:32:16.763Z,95559.00
2023-02-25T04:34:44.828Z,95560.44
2023-02-25T04:37:13.125Z,95566.47
2023-02-25T04:39:42.543Z,95563.44
2023-02-25T04:42:10.921Z,95567.84
2023-02-25T04:44:39.106Z,95558.22
2023-02-25T04:47:07.168Z,95567.88
2023-02-25T04:49:44.628Z,95566.06
2023-02-25T04:52:13.684Z,95567.06
2023-02-25T04:54:43.150Z,95570.69
2023-02-25T04:57:13.307Z,95569.47
2023-02-25T04:59:41.815Z,95567.50
2023-02-25T05:02:10.785Z,95568.94
2023-02-25T05:04:40.414Z,95574.16
2023-02-25T05:07:08.957Z,95564.06
2023-02-25T05:09:37.016Z,95559.09
2023-02-25T05:12:07.663Z,95569.19
2023-02-25T05:14:35.745Z,95568.22
2023-02-25T05:17:04.661Z,95567.75
2023-02-25T05:19:32.917Z,95563.97
2023-02-25T05:22:00.970Z,95576.00
2023-02-25T05:24:28.949Z,95572.38
2023-02-25T05:26:56.994Z,95569.97
2023-02-25T05:29:26.392Z,95581.00
2023-02-25T05:31:55.130Z,95575.81
2023-02-25T05:34:23.312Z,95572.81
2023-02-25T05:36:51.380Z,95565.97
2023-02-25T05:39:19.377Z,95573.22
2023-02-25T05:41:48.917Z,95566.56
2023-02-25T05:44:16.948Z,95569.56
2023-02-25T05:46:46.404Z,95564.28
2023-02-25T05:49:14.550Z,95567.91
2023-02-25T05:51:42.582Z,95569.16
2023-02-25T05:54:10.963Z,95571.59
2023-02-25T05:56:39.106Z,95569.19
2023-02-25T05:59:07.192Z,95574.78
2023-02-25T06:01:35.224Z,95571.59
2023-02-25T06:04:05.272Z,95573.44
2023-02-25T06:06:33.401Z,95573.69
2023-02-25T06:09:01.492Z,95581.69
2023-02-25T06:11:31.491Z,95579.50
2023-02-25T06:14:00.666Z,95589.13
2023-02-25T06:16:31.938Z,95591.13
2023-02-25T06:19:01.481Z,95593.94
2023-02-25T06:21:31.452Z,95592.72
2023-02-25T06:23:59.702Z,95599.75
2023-02-25T06:26:28.153Z,95599.78
2023-02-25T06:28:56.672Z,95606.63
2023-02-25T06:31:26.176Z,95609.22
2023-02-25T06:33:55.801Z,95616.66
2023-02-25T06:36:24.403Z,95609.63
2023-02-25T06:38:53.965Z,95604.25
2023-02-25T06:41:23.816Z,95609.06
2023-02-25T06:43:52.894Z,95608.91
2023-02-25T06:46:23.728Z,95611.06
2023-02-25T06:48:52.026Z,95625.94
2023-02-25T06:51:20.129Z,95616.72
2023-02-25T06:53:48.627Z,95606.06
2023-02-25T06:56:20.486Z,95606.69
2023-02-25T06:58:48.972Z,95609.63
2023-02-25T07:01:17.881Z,95621.34
2023-02-25T07:03:46.262Z,95628.00
2023-02-25T07:06:15.718Z,95619.75
2023-02-25T07:08:43.830Z,95626.38
2023-02-25T07:11:29.098Z,95627.22
2023-02-25T07:13:57.359Z,95631.97
2023-02-25T07:16:25.678Z,95630.03
2023-02-25T07:18:54.207Z,95627.00
2023-02-25T07:21:22.975Z,95630.41
2023-02-25T07:23:51.585Z,95637.31
2023-02-25T07:26:20.999Z,95634.25
2023-02-25T07:28:49.156Z,95635.19
2023-02-25T07:31:21.904Z,95643.84
2023-02-25T07:33:50.552Z,95643.81
2023-02-25T07:36:18.988Z,95650.25
2023-02-25T07:38:48.512Z,95645.22
2023-02-25T07:41:20.761Z,95645.22
2023-02-25T07:43:49.253Z,95635.41
2023-02-25T07:46:17.332Z,95627.56
2023-02-25T07:48:45.370Z,95628.91
2023-02-25T07:51:17.182Z,95632.72
2023-02-25T07:53:45.548Z,95631.94
2023-02-25T07:56:14.452Z,95632.69
2023-02-25T07:58:44.030Z,95637.28
2023-02-25T08:01:13.802Z,95633.00
2023-02-25T08:03:41.893Z,95632.59
2023-02-25T08:06:09.908Z,95637.25
2023-02-25T08:08:38.808Z,95627.97
2023-02-25T08:11:08.416Z,95632.22
2023-02-25T08:13:37.286Z,95624.78
2023-02-25T08:16:08.627Z,95626.44
2023-02-25T08:18:37.631Z,95618.09
2023-02-25T08:21:06.509Z,95626.94
2023-02-25T08:23:34.539Z,95629.53
2023-02-25T08:26:03.875Z,95635.63
2023-02-25T08:28:34.924Z,95646.09
2023-02-25T08:31:10.334Z,95652.09
2023-02-25T08:33:40.277Z,95641.63
2023-02-25T08:36:12.660Z,95636.53
2023-02-25T08:38:41.106Z,95648.69
2023-02-25T08:41:09.809Z,95650.66
2023-02-25T08:43:38.635Z,95651.28
2023-02-25T08:46:08.712Z,95657.94
2023-02-25T08:48:38.034Z,95635.19
2023-02-25T08:51:09.025Z,95633.41
2023-02-25T08:53:38.670Z,95627.13
2023-02-25T08:56:07.174Z,95636.63
2023-02-25T08:58:35.393Z,95631.50
2023-02-25T09:01:12.955Z,95638.56
2023-02-25T09:03:52.677Z,95636.38
2023-02-25T09:06:23.610Z,95635.84
2023-02-25T09:08:53.139Z,95636.19
2023-02-25T09:11:22.032Z,95643.78
2023-02-25T09:13:50.218Z,95636.28
2023-02-25T09:16:20.178Z,95625.44
2023-02-25T09:18:51.313Z,95639.31
2023-02-25T09:21:20.975Z,95621.91
2023-02-25T09:23:51.299Z,95626.91
2023-02-25T09:26:20.601Z,95617.91
2023-02-25T09:28:49.358Z,95617.03
2023-02-25T09:31:19.730Z,95619.25
2023-02-25T09:33:47.881Z,95615.50
2023-02-25T09:36:18.786Z,95615.56
2023-02-25T09:38:49.172Z,95618.50
2023-02-25T09:41:28.797Z,95614.56
2023-02-25T09:44:06.343Z,95611.94
2023-02-25T09:46:41.670Z,95618.06
2023-02-25T09:49:19.696Z,95607.56
2023-02-25T09:51:56.744Z,95611.88
2023-02-25T09:54:31.134Z,95610.50
2023-02-25T09:57:01.976Z,95611.31
2023-02-25T09:59:30.958Z,95615.00
2023-02-25T10:02:17.300Z,95608.81
2023-02-25T10:04:56.317Z,95608.94
2023-02-25T10:07:28.671Z,95613.53
2023-02-25T10:10:08.278Z,95609.03
2023-02-25T10:12:50.378Z,95616.00
2023-02-25T10:15:51.969Z,95611.19
2023-02-25T10:18:39.605Z,95620.50
2023-02-25T10:21:22.052Z,95617.03
2023-02-25T10:24:06.633Z,95622.72
2023-02-25T10:26:39.007Z,95619.72
2023-02-25T10:29:13.021Z,95621.47
2023-02-25T10:31:43.956Z,95617.84
2023-02-25T10:34:23.383Z,95617.31
2023-02-25T10:36:56.425Z,95614.19
2023-02-25T10:39:26.058Z,95609.16
2023-02-25T10:41:54.224Z,95602.88
2023-02-25T10:44:22.380Z,95606.03
2023-02-25T10:46:56.608Z,95596.91
2023-02-25T10:49:28.371Z,95600.72
2023-02-25T10:52:03.089Z,95593.09
2023-02-25T10:54:33.492Z,95600.38
2023-02-25T10:57:08.299Z,95596.06
2023-02-25T10:59:39.445Z,95597.69
2023-02-25T11:02:25.673Z,95599.13
2023-02-25T11:04:56.323Z,95594.59
2023-02-25T11:07:31.989Z,95594.53
2023-02-25T11:10:16.238Z,95595.91
2023-02-25T11:12:47.333Z,95593.41
2023-02-25T11:15:43.082Z,95600.78
2023-02-25T11:18:22.438Z,95597.84
2023-02-25T11:20:55.836Z,95597.28
2023-02-25T11:23:30.535Z,95592.25
2023-02-25T11:25:58.850Z,95593.63
2023-02-25T11:28:32.216Z,95593.72
2023-02-25T11:31:13.715Z,95600.38
2023-02-25T11:33:46.510Z,95587.75
2023-02-25T11:36:24.194Z,95590.31
2023-02-25T11:39:08.419Z,95585.94
2023-02-25T11:41:36.415Z,95586.47
2023-02-25T11:44:22.803Z,95583.53
2023-02-25T11:47:04.239Z,95594.53
2023-02-25T11:50:07.113Z,95602.56
2023-02-25T11:52:44.591Z,95594.41
2023-02-25T11:55:26.068Z,95593.63
2023-02-25T11:58:11.042Z,95586.97
2023-02-25T12:00:48.428Z,95586.97
2023-02-25T12:03:50.497Z,95595.13
2023-02-25T12:06:35.100Z,95594.56
2023-02-25T12:09:59.629Z,95586.16
2023-02-25T12:13:13.619Z,95589.50
2023-02-25T12:16:35.644Z,95587.50
2023-02-25T12:20:05.617Z,95587.50
2023-02-25T12:23:20.664Z,95583.91
2023-02-25T12:25:56.570Z,95591.34
2023-02-25T12:28:49.731Z,95592.28
2023-02-25T12:32:13.144Z,95587.63
2023-02-25T12:35:23.991Z,95583.41
2023-02-25T12:38:51.256Z,95596.28
2023-02-25T12:41:38.245Z,95596.06
2023-02-25T12:44:36.086Z,95593.00
2023-02-25T12:47:21.404Z,95594.91
2023-02-25T12:50:24.870Z,95600.34
2023-02-25T12:53:13.613Z,95600.41
2023-02-25T12:56:05.694Z,95596.22
2023-02-25T12:58:49.228Z,95597.72
2023-02-25T13:01:39.139Z,95609.16
2023-02-25T13:04:52.905Z,95605.47
2023-02-25T13:07:44.042Z,95601.69
2023-02-25T13:10:42.141Z,95587.63
2023-02-25T13:14:02.795Z,95579.47
2023-02-25T13:16:59.405Z,95577.00
2023-02-25T13:20:19.437Z,95566.44
2023-02-25T13:23:03.391Z,95564.63
2023-02-25T13:25:53.713Z,95562.75
2023-02-25T13:28:53.743Z,95560.13
2023-02-25T13:31:36.039Z,95559.06
2023-02-25T13:34:19.896Z,95551.34
2023-02-25T13:37:15.733Z,95552.66
2023-02-25T13:40:16.986Z,95549.97
2023-02-25T13:43:09.094Z,95560.66
2023-02-25T13:46:27.370Z,95562.28
2023-02-25T13:49:25.962Z,95568.16
2023-02-25T13:52:25.309Z,95568.53
2023-02-25T13:55:23.973Z,95559.44
2023-02-25T13:58:13.587Z,95552.03
2023-02-25T14:01:13.674Z,95555.47
2023-02-25T14:04:39.615Z,95542.94
2023-02-25T14:07:39.923Z,95540.47
2023-02-25T14:10:31.182Z,95553.06
2023-02-25T14:13:29.441Z,95558.78
2023-02-25T14:16:08.644Z,95556.13
2023-02-25T14:18:51.549Z,95557.50
2023-02-25T14:21:54.162Z,95555.50
2023-02-25T14:24:32.338Z,95556.63
2023-02-25T14:27:17.204Z,95559.38
2023-02-25T14:30:07.714Z,95556.47
2023-02-25T14:32:57.581Z,95553.34
2023-02-25T14:35:46.919Z,95549.34
2023-02-25T14:38:21.110Z,95548.19
2023-02-25T14:40:57.799Z,95561.44
2023-02-25T14:43:33.178Z,95552.88
2023-02-25T14:46:10.516Z,95558.66
2023-02-25T14:48:48.524Z,95555.31
2023-02-25T14:52:27.448Z,95553.50
2023-02-25T14:55:45.895Z,95560.41
2023-02-25T14:59:01.549Z,95555.09
2023-02-25T15:02:00.534Z,95556.63
2023-02-25T15:05:16.301Z,95556.41
2023-02-25T15:08:06.565Z,95561.50
2023-02-25T15:10:48.316Z,95569.66
2023-02-25T15:14:04.091Z,95572.19
2023-02-25T15:17:28.762Z,95581.09
2023-02-25T15:20:32.890Z,95591.34
2023-02-25T15:23:11.812Z,95582.53
2023-02-25T15:25:47.877Z,95597.25
2023-02-25T15:28:42.345Z,95593.16
2023-02-25T15:31:39.866Z,95598.50
2023-02-25T15:34:35.540Z,95595.06
2023-02-25T15:37:36.294Z,95590.47
2023-02-25T15:40:45.914Z,95604.03
2023-02-25T15:43:43.416Z,95602.94
2023-02-25T15:46:45.230Z,95598.03
2023-02-25T15:49:28.896Z,95603.94
2023-02-25T15:52:00.057Z,95602.41
2023-02-25T15:54:51.096Z,95606.91
2023-02-25T15:57:38.980Z,95596.56
2023-02-25T16:00:52.180Z,95608.88
2023-02-25T16:03:42.053Z,95612.00
2023-02-25T16:06:18.932Z,95624.34
2023-02-25T16:09:06.305Z,95628.34
2023-02-25T16:11:40.799Z,95627.59
2023-02-25T16:14:18.517Z,95631.31
2023-02-25T16:16:53.444Z,95636.75
2023-02-25T16:19:26.408Z,95626.75
2023-02-25T16:21:59.977Z,95632.31
2023-02-25T16:24:29.126Z,95625.97
2023-02-25T16:27:02.767Z,95636.97
2023-02-25T16:29:52.567Z,95635.63
2023-02-25T16:32:34.733Z,95637.47
2023-02-25T16:35:10.594Z,95640.13
2023-02-25T16:37:51.070Z,95645.81
2023-02-25T16:40:28.762Z,95652.69
2023-02-25T16:43:00.038Z,95655.34
2023-02-25T16:45:32.871Z,95657.72
2023-02-25T16:48:06.767Z,95665.19
2023-02-25T16:50:37.133Z,95672.03
2023-02-25T16:53:05.579Z,95669.47
2023-02-25T16:55:41.361Z,95670.69
2023-02-25T16:58:24.875Z,95679.13
2023-02-25T17:00:55.508Z,95682.94
2023-02-25T17:03:26.184Z,95687.81
2023-02-25T17:06:05.252Z,95688.81
2023-02-25T17:08:33.822Z,95703.13
2023-02-25T17:11:05.678Z,95695.88
2023-02-25T17:13:41.146Z,95697.91
2023-02-25T17:16:21.211Z,95689.66
2023-02-25T17:18:54.458Z,95696.13
2023-02-25T17:21:28.410Z,95693.50
2023-02-25T17:23:59.122Z,95702.94
2023-02-25T17:26:27.380Z,95706.75
2023-02-25T17:29:00.275Z,95714.81
2023-02-25T17:31:31.212Z,95715.63
2023-02-25T17:34:02.625Z,95724.25
2023-02-25T17:36:35.335Z,95719.84
2023-02-25T17:39:07.059Z,95736.94
2023-02-25T17:41:35.840Z,95745.59
2023-02-25T17:44:05.558Z,95755.69
2023-02-25T17:46:38.190Z,95761.53
2023-02-25T17:49:21.213Z,95762.56
2023-02-25T17:51:55.215Z,95767.78
2023-02-25T17:54:26.716Z,95773.22
2023-02-25T17:57:01.604Z,95783.25
2023-02-25T17:59:38.878Z,95786.50
2023-02-25T18:02:30.924Z,95787.06
2023-02-25T18:05:23.430Z,95791.25
2023-02-25T18:08:10.012Z,95785.03
2023-02-25T18:10:46.937Z,95799.25
2023-02-25T18:13:27.998Z,95803.28
2023-02-25T18:16:44.680Z,95809.53
2023-02-25T18:19:28.774Z,95811.34
2023-02-25T18:21:56.997Z,95814.16
2023-02-25T18:24:29.731Z,95811.94
2023-02-25T18:27:37.662Z,95812.13
2023-02-25T18:30:24.100Z,95816.34
2023-02-25T18:32:59.202Z,95812.94
2023-02-25T18:35:29.462Z,95822.56
2023-02-25T18:37:59.563Z,95821.56
2023-02-25T18:40:30.873Z,95819.97
2023-02-25T18:43:00.614Z,95820.97
2023-02-25T18:45:31.182Z,95823.13
2023-02-25T18:48:01.716Z,95835.81
2023-02-25T18:50:32.155Z,95829.75
2023-02-25T18:53:00.978Z,95818.94
2023-02-25T18:55:32.100Z,95827.38
2023-02-25T18:58:02.128Z,95834.59
2023-02-25T19:00:31.721Z,95826.16
2023-02-25T19:03:03.680Z,95839.81
2023-02-25T19:05:36.607Z,95838.97
2023-02-25T19:08:14.112Z,95839.97
2023-02-25T19:10:43.595Z,95843.63
2023-02-25T19:13:19.278Z,95840.25
2023-02-25T19:15:47.654Z,95839.81
2023-02-25T19:18:17.755Z,95837.41
2023-02-25T19:20:46.272Z,95839.03
2023-02-25T19:23:17.180Z,95846.44
2023-02-25T19:25:47.743Z,95848.03
2023-02-25T19:28:15.874Z,95833.81
2023-02-25T19:30:45.507Z,95840.25
2023-02-25T19:33:15.679Z,95851.91
2023-02-25T19:35:45.122Z,95851.53
2023-02-25T19:38:16.948Z,95848.28
2023-02-25T19:40:46.329Z,95867.53
2023-02-25T19:43:15.251Z,95866.75
2023-02-25T19:45:43.498Z,95865.13
2023-02-25T19:48:11.844Z,95867.56
2023-02-25T19:50:42.930Z,95875.81
2023-02-25T19:53:11.185Z,95878.78
2023-02-25T19:55:39.374Z,95885.59
2023-02-25T19:58:07.534Z,95898.25
2023-02-25T20:00:35.631Z,95898.91
2023-02-25T20:03:03.676Z,95892.03
2023-02-25T20:05:34.855Z,95902.44
2023-02-25T20:08:04.581Z,95897.56
2023-02-25T20:10:32.574Z,95904.22
2023-02-25T20:13:00.620Z,95905.84
2023-02-25T20:15:28.643Z,95908.84
2023-02-25T20:17:58.080Z,95915.84
2023-02-25T20:20:26.365Z,95921.28
2023-02-25T20:22:54.435Z,95926.50
2023-02-25T20:25:24.132Z,95916.88
2023-02-25T20:27:52.310Z,95928.22
2023-02-25T20:30:20.596Z,95933.84
2023-02-25T20:32:48.768Z,95934.50
2023-02-25T20:35:21.259Z,95929.69
2023-02-25T20:38:08.816Z,95935.00
2023-02-25T20:40:38.615Z,95942.41
2023-02-25T20:43:06.927Z,95942.44
2023-02-25T20:45:36.029Z,95946.06
2023-02-25T20:48:05.281Z,95944.03
2023-02-25T20:50:34.044Z,95939.50
2023-02-25T20:53:02.460Z,95953.94
2023-02-25T20:55:30.612Z,95954.16
2023-02-25T20:57:59.985Z,95954.25
2023-02-25T21:00:28.416Z,95956.91
2023-02-25T21:02:56.389Z,95960.69
2023-02-25T21:05:24.432Z,95961.16
2023-02-25T21:07:52.646Z,95958.09
2023-02-25T21:10:20.923Z,95959.81
2023-02-25T21:12:48.928Z,95958.63
2023-02-25T21:15:18.708Z,95963.28
2023-02-25T21:17:47.931Z,95958.38
2023-02-25T21:20:16.110Z,95958.75
2023-02-25T21:22:44.161Z,95969.19
2023-02-25T21:25:12.188Z,95967.56
2023-02-25T21:27:40.262Z,95959.59
2023-02-25T21:30:10.250Z,95963.22
2023-02-25T21:32:39.624Z,95961.19
2023-02-25T21:35:08.977Z,95973.28
2023-02-25T21:37:37.095Z,95975.22
2023-02-25T21:40:05.962Z,95979.16
2023-02-25T21:42:34.780Z,95974.38
2023-02-25T21:45:03.692Z,95978.34
2023-02-25T21:47:31.703Z,95976.75
2023-02-25T21:50:01.040Z,95978.72
2023-02-25T21:52:29.402Z,95981.16
2023-02-25T21:54:57.431Z,95984.75
2023-02-25T21:57:25.458Z,95989.50
2023-02-25T21:59:53.718Z,95985.25
2023-02-25T22:02:21.906Z,95986.03
2023-02-25T22:04:49.965Z,95982.91
2023-02-25T22:07:19.307Z,95985.97
2023-02-25T22:09:47.428Z,95985.03
2023-02-25T22:12:15.766Z,95983.88
2023-02-25T22:14:43.771Z,95979.56
2023-02-25T22:17:35.925Z,95985.03
2023-02-25T22:20:04.030Z,95996.06
2023-02-25T22:22:33.440Z,95991.50
2023-02-25T22:25:01.720Z,95989.88
2023-02-25T22:27:29.745Z,95992.97
2023-02-25T22:29:57.892Z,95989.75
2023-02-25T22:32:26.015Z,96000.66
2023-02-25T22:34:54.104Z,95992.22
2023-02-25T22:37:22.676Z,95994.72
2023-02-25T22:39:51.996Z,95993.78
2023-02-25T22:42:20.063Z,96006.00
2023-02-25T22:44:48.061Z,95998.19
2023-02-25T22:47:16.076Z,96002.09
2023-02-25T22:49:44.211Z,96000.06
2023-02-25T22:52:12.410Z,96009.06
2023-02-25T22:54:40.388Z,96003.75
2023-02-25T22:57:10.214Z,96006.72
2023-02-25T22:59:39.383Z,96006.84
2023-02-25T23:02:07.399Z,96005.41
2023-02-25T23:04:35.565Z,96007.38
2023-02-25T23:07:03.593Z,96002.88
2023-02-25T23:09:31.721Z,96006.16
2023-02-25T23:12:00.431Z,96008.38
2023-02-25T23:14:29.794Z,96009.44
2023-02-25T23:16:58.096Z,96012.22
2023-02-25T23:19:26.527Z,96017.38
2023-02-25T23:21:54.569Z,96022.94
2023-02-25T23:24:22.675Z,96029.69
2023-02-25T23:26:53.591Z,96027.19
2023-02-25T23:29:22.242Z,96022.09
2023-02-25T23:31:51.817Z,96024.28
2023-02-25T23:34:23.803Z,96025.22
2023-02-25T23:36:55.344Z,96029.91
2023-02-25T23:39:23.856Z,96026.00
2023-02-25T23:41:51.841Z,96027.75
2023-02-25T23:44:19.905Z,96029.78
2023-02-25T23:46:47.953Z,96034.09
2023-02-25T23:49:18.696Z,96030.56
2023-02-25T23:51:49.132Z,96043.34
2023-02-25T23:54:20.721Z,96042.34
2023-02-25T23:56:49.539Z,96045.41
2023-02-25T23:59:18.026Z,96040.09
